ADDS METAR Data INFO
IDs: Format: Raw Decoded Include TAF

Data at: 2313 UTC 15 Jul 2018

KHYX 152255Z AUTO 00000KT 10SM CLR 31/18 A2993 RMK AO2
KHYX 152235Z AUTO 22006KT 10SM SCT047 31/18 A2993 RMK AO2
KHYX 152215Z AUTO 20006KT 10SM SCT047 SCT065 31/18 A2993 RMK AO2
KHYX 152155Z AUTO 22007KT 10SM SCT047 SCT065 31/18 A2994 RMK AO2
KHYX 152135Z AUTO 22003KT 10SM CLR 32/18 A2995 RMK AO2
KHYX 152115Z AUTO 18006KT 10SM SCT049 SCT055 32/18 A2995 RMK AO2
KHYX 152055Z AUTO 22005KT 10SM SCT049 31/18 A2996 RMK AO2
KHYX 152035Z AUTO 21005KT 10SM CLR 32/18 A2996 RMK AO2
KHYX 152015Z AUTO 22005KT 10SM CLR 31/18 A2996 RMK AO2
KHYX 151955Z AUTO 16007KT 140V200 10SM SCT047 32/18 A2997 RMK AO2
KHYX 151935Z AUTO 20007KT 10SM SCT047 32/18 A2997 RMK AO2
KHYX 151915Z AUTO 20007KT 160V220 10SM CLR 31/18 A2998 RMK AO2
KHYX 151855Z AUTO 21004KT 10SM SCT046 SCT070 31/18 A2999 RMK AO2
KHYX 151835Z AUTO 31003G16KT 10SM BKN044 OVC065 31/18 A2999 RMK AO2
KHYX 151815Z AUTO 26005KT 10SM BKN042 BKN050 OVC060 32/18 A2999 RMK AO2
KHYX 151755Z AUTO 31003KT 10SM BKN042 BKN055 30/18 A2999 RMK AO2
KHYX 151735Z AUTO 00000KT 10SM SCT040 SCT047 SCT055 30/18 A2999 RMK AO2
KHYX 151715Z AUTO 00000KT 10SM SCT038 SCT047 BKN055 29/18 A2999 RMK AO2
KHYX 151655Z AUTO 00000KT 10SM BKN036 BKN043 BKN050 29/19 A2999 RMK AO2
KHYX 151635Z AUTO 32003KT 10SM BKN034 BKN042 BKN048 29/19 A2999 RMK AO2
KHYX 151615Z AUTO 00000KT 10SM BKN032 BKN038 BKN048 28/19 A3000 RMK AO2
KHYX 151555Z AUTO 00000KT 10SM SCT030 28/20 A2999 RMK AO2
KHYX 151535Z AUTO 31005KT 10SM SCT028 29/20 A2999 RMK AO2
KHYX 151515Z AUTO 00000KT 10SM SCT026 BKN031 28/20 A3000 RMK AO2
KHYX 151456Z AUTO 00000KT 10SM SCT026 27/20 A3000 RMK AO2
KHYX 151435Z AUTO 00000KT 10SM CLR 27/20 A3000 RMK AO2
KHYX 151415Z AUTO 00000KT 10SM CLR 27/20 A3001 RMK AO2
KHYX 151356Z AUTO 00000KT 10SM CLR 26/20 A3001 RMK AO2
KHYX 151335Z AUTO 00000KT 10SM CLR 25/20 A3001 RMK AO2
KHYX 151315Z AUTO 32003KT 10SM CLR 25/20 A3002 RMK AO2
KHYX 151255Z AUTO 34003KT 10SM CLR 25/20 A3002 RMK AO2
KHYX 151235Z AUTO 26003KT 10SM CLR 24/20 A3002 RMK AO2
KHYX 151215Z AUTO 27003KT 10SM SCT030 23/20 A3002 RMK AO2
KHYX 151155Z AUTO 23003KT 10SM CLR 22/20 A3001 RMK AO2
KHYX 151135Z AUTO 24004KT 7SM CLR 21/20 A3002 RMK AO2
KHYX 151115Z AUTO 23005KT 5SM BR CLR 21/20 A3002 RMK AO2
KHYX 151055Z AUTO 00000KT 5SM BR CLR 20/18 A3001 RMK AO2
KHYX 151035Z AUTO 00000KT 5SM BR CLR 20/18 A3002 RMK AO2
KHYX 151015Z AUTO 21003KT 7SM CLR 20/18 A3002 RMK AO2
KHYX 150955Z AUTO 22003KT 7SM CLR 20/18 A3002 RMK AO2
KHYX 150935Z AUTO 23004KT 7SM CLR 20/18 A3002 RMK AO2
KHYX 150915Z AUTO 00000KT 10SM CLR 21/19 A3002 RMK AO2
KHYX 150855Z AUTO 32003KT 10SM CLR 21/19 A3002 RMK AO2
KHYX 150835Z AUTO 00000KT 10SM CLR 21/19 A3003 RMK AO2
KHYX 150815Z AUTO 00000KT 10SM CLR 21/19 A3003 RMK AO2
KHYX 150755Z AUTO 26004KT 10SM CLR 21/19 A3003 RMK AO2
KHYX 150735Z AUTO 26003KT 7SM CLR 21/20 A3003 RMK AO2
KHYX 150715Z AUTO 22005KT 7SM CLR 21/20 A3002 RMK AO2
KHYX 150655Z AUTO 24004KT 10SM CLR 21/20 A3002 RMK AO2
KHYX 150635Z AUTO 22003KT 10SM CLR 21/18 A3001 RMK AO2
KHYX 150615Z AUTO 00000KT 10SM CLR 22/19 A3001 RMK AO2
KHYX 150555Z AUTO 27003KT 10SM CLR 22/19 A3001 RMK AO2
KHYX 150535Z AUTO 27003KT 10SM CLR 22/20 A3001 RMK AO2
KHYX 150515Z AUTO 26003KT 10SM CLR 22/20 A3002 RMK AO2
KHYX 150455Z AUTO 00000KT 10SM CLR 22/20 A3002 RMK AO2
KHYX 150435Z AUTO 25003KT 10SM CLR 23/20 A3002 RMK AO2
KHYX 150415Z AUTO 26005KT 10SM CLR 23/20 A3003 RMK AO2
KHYX 150355Z AUTO 25004KT 10SM CLR 23/20 A3003 RMK AO2
KHYX 150335Z AUTO 24005KT 10SM CLR 23/20 A3003 RMK AO2
KHYX 150315Z AUTO 24004KT 10SM CLR 23/20 A3002 RMK AO2
KHYX 150255Z AUTO 24005KT 10SM SCT065 23/20 A3002 RMK AO2
KHYX 150235Z AUTO 23005KT 10SM BKN065 24/21 A3002 RMK AO2
KHYX 150215Z AUTO 23003KT 10SM OVC065 24/21 A3003 RMK AO2
KHYX 150155Z AUTO 23005KT 10SM BKN065 23/20 A3002 RMK AO2
KHYX 150135Z AUTO 23004KT 10SM SCT065 24/20 A3002 RMK AO2
KHYX 150115Z AUTO 23004KT 10SM CLR 25/20 A3002 RMK AO2
KHYX 150055Z AUTO 24005KT 10SM SCT027 25/20 A3001 RMK AO2
KHYX 150035Z AUTO 25004KT 10SM CLR 26/20 A3000 RMK AO2
KHYX 150015Z AUTO 25006KT 10SM CLR 27/20 A2999 RMK AO2
KHYX 142355Z AUTO 27006KT 10SM CLR 27/20 A2998 RMK AO2
KHYX 142335Z AUTO 26008KT 10SM SCT110 27/19 A2998 RMK AO2
KHYX 142315Z AUTO 28008KT 10SM SCT028 SCT037 BKN110 27/19 A2999 RMK AO2
KHYX 142255Z AUTO 29011KT 10SM SCT028 BKN075 BKN085 27/20 A3000 RMK AO2
KHYX 142235Z AUTO 26009KT 10SM SCT075 SCT085 SCT120 27/20 A3000 RMK AO2
KHYX 142215Z AUTO 24009KT 10SM SCT032 SCT120 27/20 A3000 RMK AO2
KHYX 142155Z AUTO 26006KT 210V270 10SM SCT032 BKN100 27/20 A3000 RMK AO2
KHYX 142135Z AUTO 26006KT 10SM BKN100 28/20 A3001 RMK AO2
KHYX 142115Z AUTO 22007KT 10SM CLR 27/20 A3002 RMK AO2
KHYX 142055Z AUTO 24007KT 10SM CLR 27/20 A3003 RMK AO2
KHYX 142035Z AUTO 23007KT 10SM SCT090 27/20 A3003 RMK AO2
KHYX 142015Z AUTO 24007KT 10SM BKN090 27/20 A3004 RMK AO2
KHYX 141955Z AUTO 23008KT 10SM SCT025 SCT075 OVC090 27/20 A3004 RMK AO2
KHYX 141935Z AUTO 24008KT 10SM BKN075 OVC090 27/20 A3005 RMK AO2
KHYX 141915Z AUTO 23010KT 10SM BKN075 OVC085 27/20 A3005 RMK AO2
KHYX 141855Z AUTO 23008KT 10SM SCT029 SCT075 OVC085 27/20 A3005 RMK AO2
KHYX 141835Z AUTO 23007KT 10SM SCT027 OVC085 27/20 A3005 RMK AO2
KHYX 141815Z AUTO 25006KT 10SM SCT085 BKN110 28/20 A3005 RMK AO2
KHYX 141755Z AUTO 24008KT 10SM SCT085 OVC110 27/20 A3005 RMK AO2
KHYX 141735Z AUTO 23007KT 10SM BKN110 27/20 A3005 RMK AO2
KHYX 141715Z AUTO 20005KT 10SM SCT019 BKN120 26/21 A3005 RMK AO2
KHYX 141655Z AUTO 23003KT 10SM BKN110 26/20 A3005 RMK AO2
KHYX 141635Z AUTO 00000KT 10SM BKN110 26/20 A3005 RMK AO2
KHYX 141615Z AUTO 00000KT 7SM BKN110 25/20 A3005 RMK AO2
KHYX 141556Z AUTO 00000KT 10SM SCT085 BKN110 25/20 A3005 RMK AO2
KHYX 141535Z AUTO 00000KT 7SM SCT085 24/20 A3005 RMK AO2
KHYX 141515Z AUTO 00000KT 7SM -RA SCT085 23/20 A3005 RMK AO2
KHYX 141455Z AUTO 00000KT 10SM -RA SCT095 23/20 A3005 RMK AO2
KHYX 141435Z AUTO 00000KT 7SM -DZ SCT032 SCT046 BKN095 22/20 A3005 RMK AO2
KHYX 141415Z AUTO 00000KT 7SM -RA SCT028 SCT042 BKN050 22/20 A3005 RMK AO2
KHYX 141355Z AUTO 28004KT 10SM -RA SCT120 22/20 A3006 RMK AO2
KHYX 141335Z AUTO 23003KT 10SM CLR 22/20 A3006 RMK AO2
KHYX 141315Z AUTO 00000KT 10SM -DZ SCT035 SCT047 SCT060 22/19 A3006 RMK AO2
KHYX 141255Z AUTO 00000KT 10SM -RA SCT028 SCT040 SCT060 22/19 A3006 RMK AO2
KHYX 141235Z AUTO 26004KT 10SM SCT120 22/20 A3006 RMK AO2
KHYX 141215Z AUTO 00000KT 10SM SCT120 22/19 A3005 RMK AO2
KHYX 141155Z AUTO 00000KT 10SM CLR 21/19 A3004 RMK AO2
KHYX 141135Z AUTO 00000KT 10SM CLR 21/19 A3003 RMK AO2
KHYX 141115Z AUTO 00000KT 10SM SCT120 21/19 A3004 RMK AO2